createdAt,value
2022-11-02T00:04:24.002Z,26.90
2022-11-02T00:09:18.120Z,29.17
2022-11-02T00:14:11.980Z,25.45
2022-11-02T00:19:05.637Z,29.13
2022-11-02T00:23:59.853Z,28.33
2022-11-02T00:28:55.257Z,29.10
2022-11-02T00:33:48.895Z,32.30
2022-11-02T00:38:42.862Z,27.35
2022-11-02T00:43:35.941Z,28.83
2022-11-02T00:48:29.486Z,30.42
2022-11-02T00:53:22.601Z,29.70
2022-11-02T00:58:18.753Z,27.65
2022-11-02T01:08:07.933Z,25.83
2022-11-02T01:13:02.561Z,29.67
2022-11-02T01:17:54.914Z,31.77
2022-11-02T01:22:47.644Z,34.40
2022-11-02T01:27:41.025Z,31.38
2022-11-02T01:32:33.698Z,33.15
2022-11-02T01:37:27.461Z,26.90
2022-11-02T01:42:22.691Z,33.85
2022-11-02T01:47:24.971Z,34.03
2022-11-02T01:52:22.143Z,25.98
2022-11-02T01:57:18.562Z,25.15
2022-11-02T02:02:23.481Z,24.42
2022-11-02T02:07:17.443Z,24.63
2022-11-02T02:12:11.677Z,27.38
2022-11-02T02:17:26.909Z,30.67
2022-11-02T02:22:46.621Z,26.42
2022-11-02T02:28:01.132Z,29.20
2022-11-02T02:32:57.594Z,26.52
2022-11-02T02:37:58.593Z,25.60
2022-11-02T02:42:58.699Z,29.50
2022-11-02T02:48:21.092Z,24.58
2022-11-02T02:53:16.610Z,25.77
2022-11-02T02:58:16.586Z,25.90
2022-11-02T03:03:10.596Z,25.83
2022-11-02T03:08:26.870Z,29.73
2022-11-02T03:13:40.549Z,30.45
2022-11-02T03:19:16.510Z,25.00
2022-11-02T03:24:37.313Z,24.27
2022-11-02T03:30:01.922Z,23.40
2022-11-02T03:34:59.140Z,23.38
2022-11-02T03:40:20.836Z,26.02
2022-11-02T03:45:45.312Z,23.85
2022-11-02T03:50:41.313Z,26.50
2022-11-02T03:55:56.542Z,23.50
2022-11-02T04:01:20.663Z,26.13
2022-11-02T04:06:34.282Z,23.55
2022-11-02T04:12:05.708Z,21.83
2022-11-02T04:17:18.693Z,21.75
2022-11-02T04:22:32.603Z,17.65
2022-11-02T04:27:33.585Z,24.45
2022-11-02T04:33:24.795Z,23.88
2022-11-02T04:38:46.142Z,21.42
2022-11-02T04:43:52.094Z,18.17
2022-11-02T04:48:46.403Z,26.27
2022-11-02T04:53:40.989Z,20.25
2022-11-02T04:58:35.277Z,20.80
2022-11-02T05:03:30.973Z,24.63
2022-11-02T05:08:24.615Z,24.67
2022-11-02T05:13:19.027Z,26.17
2022-11-02T05:18:17.618Z,28.75
2022-11-02T05:23:11.991Z,32.60
2022-11-02T05:28:05.516Z,31.65
2022-11-02T05:32:59.315Z,37.50
2022-11-02T05:37:56.623Z,40.00
2022-11-02T05:42:50.788Z,41.13
2022-11-02T05:47:44.808Z,46.35
2022-11-02T05:52:38.912Z,40.40
2022-11-02T05:57:32.355Z,45.78
2022-11-02T06:02:26.799Z,39.28
2022-11-02T06:07:19.652Z,45.42
2022-11-02T06:12:13.125Z,47.17
2022-11-02T06:17:07.518Z,45.45
2022-11-02T06:22:00.803Z,36.72
2022-11-02T06:26:54.407Z,37.97
2022-11-02T06:31:49.922Z,38.88
2022-11-02T06:36:43.946Z,47.97
2022-11-02T06:41:38.400Z,29.50
2022-11-02T06:46:31.924Z,26.73
2022-11-02T06:51:25.826Z,32.78
2022-11-02T06:56:19.998Z,52.35
2022-11-02T07:01:16.153Z,52.00
2022-11-02T07:06:13.903Z,52.50
2022-11-02T07:11:07.675Z,61.03
2022-11-02T07:16:01.805Z,54.97
2022-11-02T07:20:55.625Z,44.70
2022-11-02T07:25:49.488Z,47.53
2022-11-02T07:30:43.586Z,42.22
2022-11-02T07:35:37.751Z,34.85
2022-11-02T07:40:32.713Z,32.10
2022-11-02T07:45:25.531Z,32.17
2022-11-02T07:50:21.453Z,37.65
2022-11-02T07:55:15.127Z,30.35
2022-11-02T08:00:11.168Z,28.95
2022-11-02T08:05:08.295Z,31.58
2022-11-02T08:10:02.259Z,30.48
2022-11-02T08:14:57.534Z,33.75
2022-11-02T08:19:50.881Z,29.42
2022-11-02T08:24:44.611Z,38.42
2022-11-02T08:29:38.289Z,33.15
2022-11-02T08:34:32.454Z,29.95
2022-11-02T08:39:26.530Z,35.95
2022-11-02T08:44:20.675Z,44.30
2022-11-02T08:49:14.912Z,40.65
2022-11-02T08:54:09.262Z,27.45
2022-11-02T08:59:03.009Z,29.60
2022-11-02T09:03:56.834Z,22.70
2022-11-02T09:08:52.804Z,22.55
2022-11-02T09:13:55.661Z,26.30
2022-11-02T09:18:50.365Z,25.17
2022-11-02T09:23:44.479Z,25.83
2022-11-02T09:28:38.857Z,29.10
2022-11-02T09:33:35.055Z,27.08
2022-11-02T09:38:29.323Z,30.00
2022-11-02T09:43:37.319Z,28.88
2022-11-02T09:48:42.948Z,25.30
2022-11-02T09:53:40.854Z,31.38
2022-11-02T09:58:38.498Z,28.45
2022-11-02T10:04:02.554Z,31.13
2022-11-02T10:08:57.951Z,35.95
2022-11-02T10:14:16.466Z,40.55
2022-11-02T10:19:15.680Z,34.13
2022-11-02T10:24:39.871Z,34.20
2022-11-02T10:29:59.997Z,33.42
2022-11-02T10:34:59.183Z,29.27
2022-11-02T10:40:19.847Z,34.92
2022-11-02T10:45:41.098Z,30.27
2022-11-02T10:50:48.861Z,31.25
2022-11-02T10:55:51.882Z,37.28
2022-11-02T11:00:48.696Z,34.28
2022-11-02T11:05:59.472Z,40.05
2022-11-02T11:10:53.540Z,39.40
2022-11-02T11:15:52.743Z,31.80
2022-11-02T11:20:46.423Z,34.13
2022-11-02T11:25:41.376Z,33.85
2022-11-02T11:30:58.806Z,31.25
2022-11-02T11:35:51.316Z,35.90
2022-11-02T11:40:47.192Z,33.65
2022-11-02T11:45:42.080Z,32.35
2022-11-02T11:50:36.440Z,33.97
2022-11-02T11:55:32.851Z,36.85
2022-11-02T12:00:28.630Z,36.65
2022-11-02T12:05:23.969Z,32.95
2022-11-02T12:11:06.593Z,35.47
2022-11-02T12:16:19.199Z,28.63
2022-11-02T12:21:44.894Z,28.05
2022-11-02T12:26:46.394Z,29.23
2022-11-02T12:31:45.282Z,31.95
2022-11-02T12:37:39.160Z,34.30
2022-11-02T12:42:43.137Z,33.10
2022-11-02T12:47:48.967Z,35.17
2022-11-02T12:52:57.422Z,33.13
2022-11-02T12:57:51.425Z,31.80
2022-11-02T13:03:03.138Z,38.03
2022-11-02T13:08:16.772Z,34.17
2022-11-02T13:13:17.469Z,32.30
2022-11-02T13:18:23.755Z,27.88
2022-11-02T13:28:25.003Z,30.00
2022-11-02T13:33:22.244Z,29.50
2022-11-02T13:38:37.230Z,30.58
2022-11-02T13:43:55.481Z,35.75
2022-11-02T13:49:08.710Z,28.75
2022-11-02T13:54:12.386Z,32.13
2022-11-02T13:59:27.046Z,29.08
2022-11-02T14:04:20.960Z,27.70
2022-11-02T14:14:12.823Z,33.30
2022-11-02T14:19:19.767Z,36.42
2022-11-02T14:24:40.575Z,35.00
2022-11-02T14:29:36.525Z,34.85
2022-11-02T14:34:41.354Z,40.10
2022-11-02T14:40:23.233Z,38.58
2022-11-02T14:45:16.156Z,35.60
2022-11-02T14:50:11.876Z,32.80
2022-11-02T14:55:26.403Z,35.28
2022-11-02T15:00:24.292Z,35.85
2022-11-02T15:05:57.913Z,36.15
2022-11-02T15:10:55.005Z,36.08
2022-11-02T15:15:51.235Z,33.50
2022-11-02T15:20:46.339Z,39.30
2022-11-02T15:25:47.941Z,36.25
2022-11-02T15:31:07.589Z,33.85
2022-11-02T15:36:00.949Z,37.40
2022-11-02T15:41:05.986Z,38.00
2022-11-02T15:46:30.274Z,48.90
2022-11-02T15:52:01.221Z,38.53
2022-11-02T15:57:18.924Z,38.72
2022-11-02T16:02:32.385Z,37.80
2022-11-02T16:12:30.881Z,38.92
2022-11-02T16:17:31.424Z,38.15
2022-11-02T16:22:27.330Z,41.00
2022-11-02T16:27:21.985Z,40.25
2022-11-02T16:32:15.927Z,46.10
2022-11-02T16:37:15.830Z,41.72
2022-11-02T16:42:17.924Z,43.75
2022-11-02T16:47:11.230Z,51.92
2022-11-02T16:52:18.145Z,46.72
2022-11-02T16:57:12.249Z,44.75
2022-11-02T17:02:06.264Z,40.88
2022-11-02T17:07:12.021Z,42.08
2022-11-02T17:12:13.766Z,47.50
2022-11-02T17:17:25.933Z,48.17
2022-11-02T17:22:21.850Z,47.80
2022-11-02T17:27:42.121Z,42.20
2022-11-02T17:32:36.661Z,50.28
2022-11-02T17:37:31.849Z,46.38
2022-11-02T17:42:44.120Z,45.17
2022-11-02T17:47:37.695Z,48.47
2022-11-02T17:52:32.038Z,49.17
2022-11-02T17:57:26.377Z,51.38
2022-11-02T18:02:20.934Z,42.58
2022-11-02T18:07:14.187Z,45.30
2022-11-02T18:12:11.426Z,44.45
2022-11-02T18:17:04.178Z,41.38
2022-11-02T18:21:58.079Z,43.50
2022-11-02T18:26:52.009Z,45.53
2022-11-02T18:31:49.183Z,50.80
2022-11-02T18:36:42.389Z,44.50
2022-11-02T18:41:40.734Z,49.00
2022-11-02T18:46:33.894Z,51.70
2022-11-02T18:56:24.337Z,48.08
2022-11-02T19:01:20.579Z,50.00
2022-11-02T19:06:32.715Z,46.92
2022-11-02T19:11:25.957Z,53.67
2022-11-02T19:16:18.949Z,50.17
2022-11-02T19:21:13.502Z,62.03
2022-11-02T19:26:07.743Z,52.45
2022-11-02T19:31:06.367Z,59.28
2022-11-02T19:36:00.975Z,61.28
2022-11-02T19:41:10.159Z,53.53
2022-11-02T19:46:04.280Z,59.38
2022-11-02T19:51:19.092Z,57.70
2022-11-02T19:56:14.091Z,60.22
2022-11-02T20:01:10.626Z,59.75
2022-11-02T20:06:06.507Z,63.00
2022-11-02T20:11:06.993Z,52.30
2022-11-02T20:16:00.043Z,58.85
2022-11-02T20:20:53.728Z,58.30
2022-11-02T20:25:48.306Z,59.00
2022-11-02T20:30:43.392Z,63.70
2022-11-02T20:35:39.366Z,58.25
2022-11-02T20:40:37.507Z,60.53
2022-11-02T20:45:34.405Z,56.78
2022-11-02T20:50:29.222Z,61.58
2022-11-02T20:55:24.521Z,57.35
2022-11-02T21:00:21.457Z,61.13
2022-11-02T21:05:15.475Z,67.00
2022-11-02T21:10:12.088Z,64.20
2022-11-02T21:15:08.811Z,60.47
2022-11-02T21:20:21.161Z,65.50
2022-11-02T21:30:11.486Z,56.35
2022-11-02T21:35:06.187Z,57.40
2022-11-02T21:40:04.619Z,59.92
2022-11-02T21:44:58.722Z,53.47
2022-11-02T21:49:52.214Z,56.97
2022-11-02T21:54:46.117Z,53.80
2022-11-02T21:59:39.870Z,56.53
2022-11-02T22:04:33.111Z,51.85
2022-11-02T22:09:28.733Z,61.15
2022-11-02T22:14:21.938Z,51.13
2022-11-02T22:19:15.584Z,59.30
2022-11-02T22:24:10.336Z,56.15
2022-11-02T22:29:04.080Z,59.63
2022-11-02T22:33:59.952Z,62.50
2022-11-02T22:38:56.831Z,61.75
2022-11-02T22:43:55.405Z,59.45
2022-11-02T22:48:49.004Z,55.45
2022-11-02T22:53:43.066Z,54.28
2022-11-02T22:58:37.089Z,57.35
2022-11-02T23:03:33.818Z,56.20
2022-11-02T23:13:20.584Z,66.70
2022-11-02T23:18:14.276Z,69.80
2022-11-02T23:28:37.593Z,75.82
2022-11-02T23:33:33.917Z,85.20
2022-11-02T23:38:50.222Z,74.97
2022-11-02T23:43:42.605Z,88.10
2022-11-02T23:53:48.125Z,74.07
2022-11-02T23:58:41.493Z,83.53
